Aviation Digital Data Service (ADDS)

Output produced by METARs form (1743 UTC 03 December 2016)
found at http://aviationweather.gov/adds/metars/
 
KFRG 031653Z 31014G22KT 10SM BKN046 08/M04 A3001 RMK AO2 PK WND 33030/1637 SLP162 T00781039
KISP 031656Z 31018G25KT 10SM BKN045 08/M03 A2998 RMK AO2 PK WND 32030/1630 SLP151 T00831033
KISP 031731Z 0318/0418 31019G28KT P6SM BKN045 
     FM032100 31014G23KT P6SM SCT040 
     FM040000 32012KT P6SM FEW040 
     FM040600 33009KT P6SM FEW040
       
KJFK 031651Z 32013KT 10SM BKN050 BKN200 08/M04 A3003 RMK AO2 SLP169 T00831039 $
KJFK 031731Z 0318/0424 31020G30KT P6SM BKN050 
     FM032100 31017G24KT P6SM SCT040 
     FM040000 32014KT P6SM SCT040 
     FM040900 33011KT P6SM FEW040 
     FM042200 33006KT P6SM SCT040 SCT250
       
KBDR 031652Z 32015G22KT 10SM SCT047 09/M03 A2997 RMK AO2 PK WND 34026/1615 SLP148 T00941033
KBDR 031731Z 0318/0418 31016G26KT P6SM BKN050 
     FM032100 31012G22KT P6SM SCT040 
     FM040000 32010KT P6SM FEW040 
     FM040600 32006KT P6SM FEW040 
     FM041500 32010KT P6SM FEW040